sensor_id;sensor_type;location;lat;lon;timestamp;pressure;altitude;pressure_sealevel;temperature;humidity
21988;BME280;11158;53.404;-1.510;2023-05-19T00:00:15;101671.13;;;19.78;43.01
21988;BME280;11158;53.404;-1.510;2023-05-19T00:03:00;101671.13;;;19.65;43.27
21988;BME280;11158;53.404;-1.510;2023-05-19T00:05:47;101675.75;;;19.71;43.10
21988;BME280;11158;53.404;-1.510;2023-05-19T00:08:33;101678.88;;;19.61;43.74
21988;BME280;11158;53.404;-1.510;2023-05-19T00:11:18;101677.47;;;19.39;44.24
21988;BME280;11158;53.404;-1.510;2023-05-19T00:14:04;101688.06;;;19.54;44.52
21988;BME280;11158;53.404;-1.510;2023-05-19T00:16:49;101689.72;;;19.61;44.54
21988;BME280;11158;53.404;-1.510;2023-05-19T00:19:33;101678.25;;;19.73;43.89
21988;BME280;11158;53.404;-1.510;2023-05-19T00:22:17;101670.94;;;19.60;44.39
21988;BME280;11158;53.404;-1.510;2023-05-19T00:25:02;101677.47;;;19.39;44.25
21988;BME280;11158;53.404;-1.510;2023-05-19T00:27:47;101673.50;;;19.41;43.63
21988;BME280;11158;53.404;-1.510;2023-05-19T00:30:31;101686.44;;;19.39;43.44
21988;BME280;11158;53.404;-1.510;2023-05-19T00:33:15;101690.78;;;19.54;42.83
21988;BME280;11158;53.404;-1.510;2023-05-19T00:36:03;101677.19;;;19.67;42.49
21988;BME280;11158;53.404;-1.510;2023-05-19T00:38:47;101680.97;;;19.73;42.32
21988;BME280;11158;53.404;-1.510;2023-05-19T00:41:31;101670.75;;;19.61;42.62
21988;BME280;11158;53.404;-1.510;2023-05-19T00:44:15;101673.28;;;19.50;43.34
21988;BME280;11158;53.404;-1.510;2023-05-19T00:46:59;101677.63;;;19.57;43.02
21988;BME280;11158;53.404;-1.510;2023-05-19T00:49:43;101673.00;;;19.78;42.73
21988;BME280;11158;53.404;-1.510;2023-05-19T00:52:27;101676.72;;;19.83;42.54
21988;BME280;11158;53.404;-1.510;2023-05-19T00:55:11;101672.41;;;19.69;43.12
21988;BME280;11158;53.404;-1.510;2023-05-19T00:57:57;101671.38;;;19.57;44.15
21988;BME280;11158;53.404;-1.510;2023-05-19T01:00:41;101672.66;;;19.54;44.36
21988;BME280;11158;53.404;-1.510;2023-05-19T01:03:26;101678.06;;;19.61;43.95
21988;BME280;11158;53.404;-1.510;2023-05-19T01:06:13;101673.44;;;19.68;43.31
21988;BME280;11158;53.404;-1.510;2023-05-19T01:08:58;101679.56;;;18.57;45.58
21988;BME280;11158;53.404;-1.510;2023-05-19T01:11:42;101681.38;;;18.30;46.93
21988;BME280;11158;53.404;-1.510;2023-05-19T01:14:27;101678.91;;;18.41;46.04
21988;BME280;11158;53.404;-1.510;2023-05-19T01:17:24;101685.41;;;18.74;45.53
21988;BME280;11158;53.404;-1.510;2023-05-19T01:20:19;101676.28;;;19.08;44.37
21988;BME280;11158;53.404;-1.510;2023-05-19T01:23:27;101678.56;;;19.04;42.97
21988;BME280;11158;53.404;-1.510;2023-05-19T01:26:44;101677.91;;;18.62;42.96
21988;BME280;11158;53.404;-1.510;2023-05-19T01:32:32;101686.66;;;18.65;43.53
21988;BME280;11158;53.404;-1.510;2023-05-19T01:35:17;101683.94;;;18.51;43.26
21988;BME280;11158;53.404;-1.510;2023-05-19T01:38:02;101680.84;;;17.93;44.87
21988;BME280;11158;53.404;-1.510;2023-05-19T01:40:48;101676.53;;;18.12;44.58
21988;BME280;11158;53.404;-1.510;2023-05-19T01:43:33;101673.00;;;18.11;44.20
21988;BME280;11158;53.404;-1.510;2023-05-19T01:46:18;101687.00;;;18.41;44.07
21988;BME280;11158;53.404;-1.510;2023-05-19T01:49:03;101678.38;;;18.86;42.77
21988;BME280;11158;53.404;-1.510;2023-05-19T01:51:47;101675.63;;;18.73;42.55
21988;BME280;11158;53.404;-1.510;2023-05-19T01:54:31;101676.75;;;18.10;44.04
21988;BME280;11158;53.404;-1.510;2023-05-19T02:00:51;101668.69;;;18.24;43.93
21988;BME280;11158;53.404;-1.510;2023-05-19T02:06:45;101673.16;;;18.91;42.17
21988;BME280;11158;53.404;-1.510;2023-05-19T02:09:51;101664.38;;;19.16;41.91
21988;BME280;11158;53.404;-1.510;2023-05-19T02:12:39;101659.16;;;19.08;41.68
21988;BME280;11158;53.404;-1.510;2023-05-19T02:15:26;101660.84;;;19.02;41.65
21988;BME280;11158;53.404;-1.510;2023-05-19T02:18:13;101672.47;;;18.76;42.31
21988;BME280;11158;53.404;-1.510;2023-05-19T02:21:01;101666.47;;;18.87;42.51
21988;BME280;11158;53.404;-1.510;2023-05-19T02:23:46;101671.44;;;18.57;43.04
21988;BME280;11158;53.404;-1.510;2023-05-19T02:26:31;101669.13;;;18.40;44.23
21988;BME280;11158;53.404;-1.510;2023-05-19T02:29:14;101673.91;;;18.45;44.92
21988;BME280;11158;53.404;-1.510;2023-05-19T02:32:00;101675.69;;;18.11;46.20
21988;BME280;11158;53.404;-1.510;2023-05-19T02:34:45;101670.59;;;18.50;45.35
21988;BME280;11158;53.404;-1.510;2023-05-19T02:37:29;101676.66;;;18.58;44.82
21988;BME280;11158;53.404;-1.510;2023-05-19T02:40:14;101684.78;;;18.72;44.50
21988;BME280;11158;53.404;-1.510;2023-05-19T02:42:58;101683.09;;;18.44;45.64
21988;BME280;11158;53.404;-1.510;2023-05-19T02:45:42;101687.69;;;18.63;45.10
21988;BME280;11158;53.404;-1.510;2023-05-19T02:48:27;101681.84;;;18.67;45.32
21988;BME280;11158;53.404;-1.510;2023-05-19T02:51:11;101681.69;;;18.88;44.65
21988;BME280;11158;53.404;-1.510;2023-05-19T02:53:55;101680.00;;;18.60;45.23
21988;BME280;11158;53.404;-1.510;2023-05-19T02:56:39;101686.03;;;18.62;45.19
21988;BME280;11158;53.404;-1.510;2023-05-19T02:59:23;101687.28;;;18.73;44.67
21988;BME280;11158;53.404;-1.510;2023-05-19T03:02:08;101689.00;;;18.88;44.58
21988;BME280;11158;53.404;-1.510;2023-05-19T03:04:52;101680.66;;;18.89;44.31
21988;BME280;11158;53.404;-1.510;2023-05-19T03:07:36;101691.44;;;18.49;44.98
21988;BME280;11158;53.404;-1.510;2023-05-19T03:10:20;101684.72;;;18.38;45.50
21988;BME280;11158;53.404;-1.510;2023-05-19T03:13:04;101687.63;;;18.37;45.46
21988;BME280;11158;53.404;-1.510;2023-05-19T03:15:49;101681.41;;;18.43;45.33
21988;BME280;11158;53.404;-1.510;2023-05-19T03:18:34;101683.06;;;18.31;45.97
21988;BME280;11158;53.404;-1.510;2023-05-19T03:21:18;101671.78;;;18.27;45.58
21988;BME280;11158;53.404;-1.510;2023-05-19T03:24:03;101666.91;;;17.54;47.33
21988;BME280;11158;53.404;-1.510;2023-05-19T03:26:47;101674.66;;;17.29;47.53
21988;BME280;11158;53.404;-1.510;2023-05-19T03:29:32;101674.66;;;17.29;47.85
21988;BME280;11158;53.404;-1.510;2023-05-19T03:32:15;101671.06;;;16.94;48.40
21988;BME280;11158;53.404;-1.510;2023-05-19T03:34:59;101666.50;;;16.94;48.78
21988;BME280;11158;53.404;-1.510;2023-05-19T03:37:43;101667.84;;;17.05;48.88
21988;BME280;11158;53.404;-1.510;2023-05-19T03:40:28;101670.63;;;16.90;49.32
21988;BME280;11158;53.404;-1.510;2023-05-19T03:43:13;101653.75;;;17.10;48.56
21988;BME280;11158;53.404;-1.510;2023-05-19T03:45:58;101650.53;;;17.28;48.05
21988;BME280;11158;53.404;-1.510;2023-05-19T03:48:42;101638.50;;;17.30;47.79
21988;BME280;11158;53.404;-1.510;2023-05-19T03:51:27;101643.94;;;17.37;47.66
21988;BME280;11158;53.404;-1.510;2023-05-19T03:54:12;101645.28;;;17.54;47.17
21988;BME280;11158;53.404;-1.510;2023-05-19T03:56:57;101641.22;;;17.78;46.28
21988;BME280;11158;53.404;-1.510;2023-05-19T03:59:41;101629.38;;;17.38;47.14
21988;BME280;11158;53.404;-1.510;2023-05-19T04:02:26;101637.84;;;17.28;47.07
21988;BME280;11158;53.404;-1.510;2023-05-19T04:05:10;101638.19;;;17.12;47.21
21988;BME280;11158;53.404;-1.510;2023-05-19T04:07:54;101636.50;;;17.46;46.33
21988;BME280;11158;53.404;-1.510;2023-05-19T04:10:38;101623.34;;;17.77;45.26
21988;BME280;11158;53.404;-1.510;2023-05-19T04:13:22;101629.94;;;18.16;44.60
21988;BME280;11158;53.404;-1.510;2023-05-19T04:16:06;101641.22;;;18.40;43.78
21988;BME280;11158;53.404;-1.510;2023-05-19T04:18:51;101646.03;;;18.51;43.10
21988;BME280;11158;53.404;-1.510;2023-05-19T04:21:35;101644.13;;;18.45;43.61
21988;BME280;11158;53.404;-1.510;2023-05-19T04:24:21;101632.91;;;18.35;44.26
21988;BME280;11158;53.404;-1.510;2023-05-19T04:27:05;101640.78;;;18.30;44.70
21988;BME280;11158;53.404;-1.510;2023-05-19T04:29:54;101645.63;;;18.68;44.01
21988;BME280;11158;53.404;-1.510;2023-05-19T04:32:38;101645.16;;;18.31;44.91
21988;BME280;11158;53.404;-1.510;2023-05-19T04:35:24;101661.81;;;17.38;47.42
21988;BME280;11158;53.404;-1.510;2023-05-19T04:38:08;101653.97;;;17.50;47.12
21988;BME280;11158;53.404;-1.510;2023-05-19T04:40:52;101656.44;;;17.45;46.86
21988;BME280;11158;53.404;-1.510;2023-05-19T04:43:37;101646.50;;;17.52;46.49
21988;BME280;11158;53.404;-1.510;2023-05-19T04:46:25;101656.59;;;17.71;46.02
21988;BME280;11158;53.404;-1.510;2023-05-19T04:49:10;101650.97;;;17.66;45.78
21988;BME280;11158;53.404;-1.510;2023-05-19T04:51:55;101662.19;;;17.28;46.79
21988;BME280;11158;53.404;-1.510;2023-05-19T04:54:39;101653.84;;;17.23;46.58
21988;BME280;11158;53.404;-1.510;2023-05-19T04:57:24;101658.16;;;17.17;46.94
21988;BME280;11158;53.404;-1.510;2023-05-19T05:00:09;101664.94;;;17.07;46.99
21988;BME280;11158;53.404;-1.510;2023-05-19T05:02:57;101657.31;;;17.52;46.17
21988;BME280;11158;53.404;-1.510;2023-05-19T05:05:41;101662.69;;;17.80;45.67
21988;BME280;11158;53.404;-1.510;2023-05-19T05:08:25;101662.47;;;17.82;45.64
21988;BME280;11158;53.404;-1.510;2023-05-19T05:11:10;101679.72;;;17.80;45.37
21988;BME280;11158;53.404;-1.510;2023-05-19T05:13:54;101673.47;;;18.41;44.29
21988;BME280;11158;53.404;-1.510;2023-05-19T05:16:41;101664.16;;;18.64;43.91
21988;BME280;11158;53.404;-1.510;2023-05-19T05:19:25;101666.44;;;18.54;43.62
21988;BME280;11158;53.404;-1.510;2023-05-19T05:22:09;101669.38;;;18.66;43.19
21988;BME280;11158;53.404;-1.510;2023-05-19T05:24:54;101672.28;;;18.71;43.31
21988;BME280;11158;53.404;-1.510;2023-05-19T05:27:38;101671.25;;;18.72;43.14
21988;BME280;11158;53.404;-1.510;2023-05-19T05:30:22;101671.06;;;19.13;42.56
21988;BME280;11158;53.404;-1.510;2023-05-19T05:33:06;101670.16;;;19.39;42.51
21988;BME280;11158;53.404;-1.510;2023-05-19T05:35:51;101667.00;;;19.56;41.54
21988;BME280;11158;53.404;-1.510;2023-05-19T05:38:34;101667.59;;;19.64;41.40
21988;BME280;11158;53.404;-1.510;2023-05-19T05:41:19;101665.88;;;19.83;40.65
21988;BME280;11158;53.404;-1.510;2023-05-19T05:44:04;101674.25;;;19.82;40.39
21988;BME280;11158;53.404;-1.510;2023-05-19T05:46:49;101675.16;;;20.14;39.74
21988;BME280;11158;53.404;-1.510;2023-05-19T05:49:33;101668.94;;;20.39;39.32
21988;BME280;11158;53.404;-1.510;2023-05-19T05:52:24;101679.69;;;20.52;38.96
21988;BME280;11158;53.404;-1.510;2023-05-19T05:55:11;101669.34;;;20.74;38.42
21988;BME280;11158;53.404;-1.510;2023-05-19T05:57:55;101672.78;;;20.88;38.55
21988;BME280;11158;53.404;-1.510;2023-05-19T06:00:42;101679.63;;;20.65;38.86
21988;BME280;11158;53.404;-1.510;2023-05-19T06:03:26;101670.22;;;20.68;38.78
21988;BME280;11158;53.404;-1.510;2023-05-19T06:06:12;101667.19;;;20.83;38.98
21988;BME280;11158;53.404;-1.510;2023-05-19T06:08:56;101670.69;;;20.90;39.29
21988;BME280;11158;53.404;-1.510;2023-05-19T06:11:40;101673.72;;;21.00;38.89
21988;BME280;11158;53.404;-1.510;2023-05-19T06:14:24;101663.13;;;21.36;37.97
21988;BME280;11158;53.404;-1.510;2023-05-19T06:17:09;101660.03;;;21.87;37.44
21988;BME280;11158;53.404;-1.510;2023-05-19T06:19:53;101667.72;;;22.09;37.06
21988;BME280;11158;53.404;-1.510;2023-05-19T06:22:37;101669.94;;;22.00;37.33
21988;BME280;11158;53.404;-1.510;2023-05-19T06:25:21;101669.22;;;22.23;37.14
21988;BME280;11158;53.404;-1.510;2023-05-19T06:28:05;101671.38;;;22.87;35.79
21988;BME280;11158;53.404;-1.510;2023-05-19T06:30:49;101669.25;;;23.36;34.52
21988;BME280;11158;53.404;-1.510;2023-05-19T06:33:33;101666.56;;;25.91;31.41
21988;BME280;11158;53.404;-1.510;2023-05-19T06:36:17;101651.75;;;26.46;28.78
21988;BME280;11158;53.404;-1.510;2023-05-19T06:39:01;101663.75;;;25.25;31.06
21988;BME280;11158;53.404;-1.510;2023-05-19T06:41:45;101660.41;;;24.38;32.69
21988;BME280;11158;53.404;-1.510;2023-05-19T06:44:29;101661.25;;;23.70;33.88
21988;BME280;11158;53.404;-1.510;2023-05-19T06:47:14;101656.28;;;24.07;33.68
21988;BME280;11158;53.404;-1.510;2023-05-19T06:49:58;101644.25;;;26.64;30.26
21988;BME280;11158;53.404;-1.510;2023-05-19T06:52:42;101629.44;;;29.55;25.56
21988;BME280;11158;53.404;-1.510;2023-05-19T06:55:27;101636.63;;;27.66;27.13
21988;BME280;11158;53.404;-1.510;2023-05-19T06:58:11;101637.38;;;26.34;29.66
21988;BME280;11158;53.404;-1.510;2023-05-19T07:00:56;101641.78;;;25.03;32.02
21988;BME280;11158;53.404;-1.510;2023-05-19T07:03:40;101646.28;;;24.92;31.97
21988;BME280;11158;53.404;-1.510;2023-05-19T07:06:24;101642.31;;;24.83;32.40
21988;BME280;11158;53.404;-1.510;2023-05-19T07:09:08;101638.22;;;25.19;31.83
21988;BME280;11158;53.404;-1.510;2023-05-19T07:11:53;101647.44;;;25.13;31.95
21988;BME280;11158;53.404;-1.510;2023-05-19T07:14:39;101648.78;;;24.60;33.02
21988;BME280;11158;53.404;-1.510;2023-05-19T07:17:23;101651.00;;;22.89;36.52
21988;BME280;11158;53.404;-1.510;2023-05-19T07:20:07;101654.66;;;22.71;37.98
21988;BME280;11158;53.404;-1.510;2023-05-19T07:22:54;101661.91;;;22.77;37.59
21988;BME280;11158;53.404;-1.510;2023-05-19T07:25:39;101663.41;;;22.62;37.80
21988;BME280;11158;53.404;-1.510;2023-05-19T07:28:23;101672.69;;;22.96;36.87
21988;BME280;11158;53.404;-1.510;2023-05-19T07:31:08;101673.03;;;22.88;37.77
21988;BME280;11158;53.404;-1.510;2023-05-19T07:33:52;101672.00;;;23.12;37.05
21988;BME280;11158;53.404;-1.510;2023-05-19T07:36:37;101672.13;;;23.06;37.55
21988;BME280;11158;53.404;-1.510;2023-05-19T07:39:21;101669.28;;;21.86;39.96
21988;BME280;11158;53.404;-1.510;2023-05-19T07:42:08;101687.63;;;20.54;43.47
21988;BME280;11158;53.404;-1.510;2023-05-19T07:44:52;101690.31;;;20.28;43.87
21988;BME280;11158;53.404;-1.510;2023-05-19T07:47:37;101692.25;;;20.85;43.43
21988;BME280;11158;53.404;-1.510;2023-05-19T07:50:22;101693.88;;;20.61;43.99
21988;BME280;11158;53.404;-1.510;2023-05-19T07:53:06;101702.38;;;19.87;45.83
21988;BME280;11158;53.404;-1.510;2023-05-19T07:55:50;101701.69;;;18.87;48.83
21988;BME280;11158;53.404;-1.510;2023-05-19T07:58:34;101701.41;;;19.75;47.20
21988;BME280;11158;53.404;-1.510;2023-05-19T08:01:18;101702.72;;;19.26;49.84
21988;BME280;11158;53.404;-1.510;2023-05-19T08:04:02;101696.00;;;19.49;49.12
21988;BME280;11158;53.404;-1.510;2023-05-19T08:06:47;101711.44;;;18.75;50.73
21988;BME280;11158;53.404;-1.510;2023-05-19T08:09:31;101712.47;;;18.54;51.50
21988;BME280;11158;53.404;-1.510;2023-05-19T08:12:15;101712.91;;;19.37;49.61
21988;BME280;11158;53.404;-1.510;2023-05-19T08:14:59;101712.44;;;19.67;48.12
21988;BME280;11158;53.404;-1.510;2023-05-19T08:17:43;101703.97;;;19.37;48.08
21988;BME280;11158;53.404;-1.510;2023-05-19T08:20:27;101701.72;;;19.99;47.29
21988;BME280;11158;53.404;-1.510;2023-05-19T08:23:11;101705.72;;;20.35;45.39
21988;BME280;11158;53.404;-1.510;2023-05-19T08:25:55;101709.88;;;20.76;45.14
21988;BME280;11158;53.404;-1.510;2023-05-19T08:28:39;101703.38;;;21.52;43.42
21988;BME280;11158;53.404;-1.510;2023-05-19T08:31:24;101694.97;;;21.53;42.97
21988;BME280;11158;53.404;-1.510;2023-05-19T08:34:08;101700.28;;;21.85;41.84
21988;BME280;11158;53.404;-1.510;2023-05-19T08:36:52;101702.69;;;21.31;43.59
21988;BME280;11158;53.404;-1.510;2023-05-19T08:39:41;101716.06;;;20.51;46.91
21988;BME280;11158;53.404;-1.510;2023-05-19T08:42:25;101714.97;;;19.75;49.12
21988;BME280;11158;53.404;-1.510;2023-05-19T08:45:09;101711.06;;;19.38;49.59
21988;BME280;11158;53.404;-1.510;2023-05-19T08:47:53;101721.38;;;18.41;51.27
21988;BME280;11158;53.404;-1.510;2023-05-19T08:50:39;101728.69;;;18.47;52.09
21988;BME280;11158;53.404;-1.510;2023-05-19T08:53:31;101724.28;;;18.33;53.13
21988;BME280;11158;53.404;-1.510;2023-05-19T08:56:23;101721.91;;;19.31;51.38
21988;BME280;11158;53.404;-1.510;2023-05-19T08:59:09;101721.06;;;18.77;51.52
21988;BME280;11158;53.404;-1.510;2023-05-19T09:01:54;101726.06;;;18.87;52.34
21988;BME280;11158;53.404;-1.510;2023-05-19T09:04:39;101716.69;;;18.96;50.81
21988;BME280;11158;53.404;-1.510;2023-05-19T09:07:23;101716.44;;;19.51;50.13
21988;BME280;11158;53.404;-1.510;2023-05-19T09:10:09;101717.56;;;18.90;49.96
21988;BME280;11158;53.404;-1.510;2023-05-19T09:12:57;101714.19;;;19.28;49.29
21988;BME280;11158;53.404;-1.510;2023-05-19T09:15:43;101727.34;;;19.04;49.89
21988;BME280;11158;53.404;-1.510;2023-05-19T09:18:28;101725.56;;;18.50;50.79
21988;BME280;11158;53.404;-1.510;2023-05-19T09:21:12;101732.91;;;18.70;51.17
21988;BME280;11158;53.404;-1.510;2023-05-19T09:24:02;101727.63;;;18.48;51.60
21988;BME280;11158;53.404;-1.510;2023-05-19T09:26:46;101733.94;;;18.69;50.99
21988;BME280;11158;53.404;-1.510;2023-05-19T09:29:30;101728.53;;;18.75;50.76
21988;BME280;11158;53.404;-1.510;2023-05-19T09:32:23;101717.50;;;19.70;48.79
21988;BME280;11158;53.404;-1.510;2023-05-19T09:35:08;101725.81;;;19.75;48.05
21988;BME280;11158;53.404;-1.510;2023-05-19T09:37:53;101722.38;;;20.45;45.86
21988;BME280;11158;53.404;-1.510;2023-05-19T09:40:38;101729.16;;;19.77;46.20
21988;BME280;11158;53.404;-1.510;2023-05-19T09:43:22;101721.44;;;20.26;45.23
21988;BME280;11158;53.404;-1.510;2023-05-19T09:46:08;101717.50;;;21.42;43.16
21988;BME280;11158;53.404;-1.510;2023-05-19T09:48:56;101709.44;;;22.82;40.26
21988;BME280;11158;53.404;-1.510;2023-05-19T09:51:41;101713.84;;;23.18;38.96
21988;BME280;11158;53.404;-1.510;2023-05-19T09:54:26;101723.22;;;23.10;38.95
21988;BME280;11158;53.404;-1.510;2023-05-19T09:57:12;101717.00;;;23.97;37.08
21988;BME280;11158;53.404;-1.510;2023-05-19T09:59:57;101712.22;;;24.62;36.38
21988;BME280;11158;53.404;-1.510;2023-05-19T10:02:44;101716.00;;;23.51;36.41
21988;BME280;11158;53.404;-1.510;2023-05-19T10:05:30;101719.09;;;23.08;37.59
21988;BME280;11158;53.404;-1.510;2023-05-19T10:08:15;101714.69;;;22.65;37.63
21988;BME280;11158;53.404;-1.510;2023-05-19T10:11:01;101714.19;;;22.98;37.89
21988;BME280;11158;53.404;-1.510;2023-05-19T10:13:49;101718.25;;;21.86;39.36
21988;BME280;11158;53.404;-1.510;2023-05-19T10:16:34;101713.81;;;22.41;38.93
21988;BME280;11158;53.404;-1.510;2023-05-19T10:19:37;101715.41;;;23.02;37.80
21988;BME280;11158;53.404;-1.510;2023-05-19T10:22:21;101711.69;;;22.43;38.89
21988;BME280;11158;53.404;-1.510;2023-05-19T10:25:06;101714.72;;;22.34;38.14
21988;BME280;11158;53.404;-1.510;2023-05-19T10:27:56;101709.50;;;21.66;39.57
21988;BME280;11158;53.404;-1.510;2023-05-19T10:30:44;101707.38;;;21.86;39.91
21988;BME280;11158;53.404;-1.510;2023-05-19T10:36:43;101702.88;;;22.10;39.14
21988;BME280;11158;53.404;-1.510;2023-05-19T10:39:32;101706.16;;;21.82;39.69
21988;BME280;11158;53.404;-1.510;2023-05-19T10:45:21;101697.91;;;22.37;39.36
21988;BME280;11158;53.404;-1.510;2023-05-19T10:48:12;101699.22;;;22.77;38.89
21988;BME280;11158;53.404;-1.510;2023-05-19T10:50:57;101696.16;;;22.13;39.74
21988;BME280;11158;53.404;-1.510;2023-05-19T10:53:42;101684.41;;;23.67;35.96
21988;BME280;11158;53.404;-1.510;2023-05-19T10:56:32;101682.38;;;23.86;35.13
21988;BME280;11158;53.404;-1.510;2023-05-19T10:59:30;101694.63;;;22.89;37.20
21988;BME280;11158;53.404;-1.510;2023-05-19T11:02:40;101690.00;;;22.90;35.11
21988;BME280;11158;53.404;-1.510;2023-05-19T11:05:28;101695.13;;;21.59;37.21
21988;BME280;11158;53.404;-1.510;2023-05-19T11:08:13;101692.09;;;22.04;37.35
21988;BME280;11158;53.404;-1.510;2023-05-19T11:11:11;101688.97;;;23.26;35.51
21988;BME280;11158;53.404;-1.510;2023-05-19T11:13:55;101681.00;;;23.48;34.40
21988;BME280;11158;53.404;-1.510;2023-05-19T11:16:45;101685.28;;;23.09;34.80
21988;BME280;11158;53.404;-1.510;2023-05-19T11:19:33;101687.56;;;22.70;34.59
21988;BME280;11158;53.404;-1.510;2023-05-19T11:22:17;101687.16;;;23.55;34.39
21988;BME280;11158;53.404;-1.510;2023-05-19T11:25:01;101687.13;;;22.73;35.10
21988;BME280;11158;53.404;-1.510;2023-05-19T11:27:47;101688.72;;;23.39;34.07
21988;BME280;11158;53.404;-1.510;2023-05-19T11:30:31;101687.03;;;23.62;33.99
21988;BME280;11158;53.404;-1.510;2023-05-19T11:33:16;101694.47;;;22.72;36.42
21988;BME280;11158;53.404;-1.510;2023-05-19T11:36:03;101679.22;;;24.06;33.80
21988;BME280;11158;53.404;-1.510;2023-05-19T11:38:47;101686.13;;;22.55;36.41
21988;BME280;11158;53.404;-1.510;2023-05-19T11:41:37;101697.13;;;22.49;37.30
21988;BME280;11158;53.404;-1.510;2023-05-19T11:44:22;101702.16;;;19.96;41.24
21988;BME280;11158;53.404;-1.510;2023-05-19T11:47:06;101704.69;;;19.91;41.39
21988;BME280;11158;53.404;-1.510;2023-05-19T11:49:51;101704.38;;;20.50;40.00
21988;BME280;11158;53.404;-1.510;2023-05-19T11:52:35;101700.13;;;20.61;40.02
21988;BME280;11158;53.404;-1.510;2023-05-19T11:55:20;101701.75;;;19.92;42.15
21988;BME280;11158;53.404;-1.510;2023-05-19T11:58:05;101698.25;;;19.78;41.85
21988;BME280;11158;53.404;-1.510;2023-05-19T12:00:49;101699.81;;;19.34;42.97
21988;BME280;11158;53.404;-1.510;2023-05-19T12:03:34;101704.00;;;18.90;45.23
21988;BME280;11158;53.404;-1.510;2023-05-19T12:06:18;101701.72;;;19.99;42.69
21988;BME280;11158;53.404;-1.510;2023-05-19T12:09:04;101706.22;;;20.88;41.11
21988;BME280;11158;53.404;-1.510;2023-05-19T12:11:50;101701.00;;;20.55;41.61
21988;BME280;11158;53.404;-1.510;2023-05-19T12:14:36;101704.13;;;20.52;41.84
21988;BME280;11158;53.404;-1.510;2023-05-19T12:17:20;101702.97;;;21.67;39.61
21988;BME280;11158;53.404;-1.510;2023-05-19T12:20:07;101706.66;;;20.85;41.99
21988;BME280;11158;53.404;-1.510;2023-05-19T12:22:54;101714.38;;;20.18;43.08
21988;BME280;11158;53.404;-1.510;2023-05-19T12:25:38;101710.38;;;20.27;43.86
21988;BME280;11158;53.404;-1.510;2023-05-19T12:28:23;101697.94;;;20.45;43.55
21988;BME280;11158;53.404;-1.510;2023-05-19T12:31:07;101697.16;;;22.00;39.35
21988;BME280;11158;53.404;-1.510;2023-05-19T12:33:51;101688.66;;;21.34;40.27
21988;BME280;11158;53.404;-1.510;2023-05-19T12:36:35;101680.38;;;22.87;37.38
21988;BME280;11158;53.404;-1.510;2023-05-19T12:39:20;101699.69;;;21.65;39.63
21988;BME280;11158;53.404;-1.510;2023-05-19T12:42:10;101692.13;;;22.34;38.72
21988;BME280;11158;53.404;-1.510;2023-05-19T12:44:58;101700.03;;;21.50;40.21
21988;BME280;11158;53.404;-1.510;2023-05-19T12:47:46;101692.81;;;22.11;39.92
21988;BME280;11158;53.404;-1.510;2023-05-19T12:50:31;101693.97;;;20.41;42.98
21988;BME280;11158;53.404;-1.510;2023-05-19T12:53:16;101700.94;;;19.85;45.04
21988;BME280;11158;53.404;-1.510;2023-05-19T12:56:00;101699.84;;;21.01;42.52
21988;BME280;11158;53.404;-1.510;2023-05-19T12:58:44;101682.78;;;21.93;41.57
21988;BME280;11158;53.404;-1.510;2023-05-19T13:01:28;101682.38;;;21.34;42.48
21988;BME280;11158;53.404;-1.510;2023-05-19T13:04:13;101691.53;;;20.71;42.91
21988;BME280;11158;53.404;-1.510;2023-05-19T13:06:57;101678.22;;;21.31;42.56
21988;BME280;11158;53.404;-1.510;2023-05-19T13:09:42;101680.63;;;21.46;40.76
21988;BME280;11158;53.404;-1.510;2023-05-19T13:12:25;101676.31;;;22.06;41.04
21988;BME280;11158;53.404;-1.510;2023-05-19T13:15:10;101679.56;;;21.66;42.56
21988;BME280;11158;53.404;-1.510;2023-05-19T13:17:55;101681.38;;;22.21;40.55
21988;BME280;11158;53.404;-1.510;2023-05-19T13:20:41;101681.31;;;21.42;42.19
21988;BME280;11158;53.404;-1.510;2023-05-19T13:23:25;101681.06;;;21.18;42.60
21988;BME280;11158;53.404;-1.510;2023-05-19T13:26:09;101672.47;;;21.46;41.32
21988;BME280;11158;53.404;-1.510;2023-05-19T13:28:55;101673.00;;;22.64;38.54
21988;BME280;11158;53.404;-1.510;2023-05-19T13:31:39;101683.59;;;22.42;39.18
21988;BME280;11158;53.404;-1.510;2023-05-19T13:34:24;101668.13;;;22.43;39.31
21988;BME280;11158;53.404;-1.510;2023-05-19T13:37:08;101671.63;;;23.44;37.71
21988;BME280;11158;53.404;-1.510;2023-05-19T13:39:54;101680.03;;;21.44;42.37
21988;BME280;11158;53.404;-1.510;2023-05-19T13:42:40;101684.59;;;21.44;42.30
21988;BME280;11158;53.404;-1.510;2023-05-19T13:45:25;101691.59;;;21.15;42.39
21988;BME280;11158;53.404;-1.510;2023-05-19T13:48:09;101681.44;;;21.84;41.20
21988;BME280;11158;53.404;-1.510;2023-05-19T13:50:54;101671.56;;;22.20;39.99
21988;BME280;11158;53.404;-1.510;2023-05-19T13:53:39;101678.66;;;20.85;42.96
21988;BME280;11158;53.404;-1.510;2023-05-19T13:56:23;101677.25;;;20.44;44.36
21988;BME280;11158;53.404;-1.510;2023-05-19T13:59:08;101676.78;;;21.29;42.51
21988;BME280;11158;53.404;-1.510;2023-05-19T14:01:51;101671.59;;;22.73;38.71
21988;BME280;11158;53.404;-1.510;2023-05-19T14:04:36;101658.00;;;22.31;37.97
21988;BME280;11158;53.404;-1.510;2023-05-19T14:07:24;101661.25;;;21.36;41.50
21988;BME280;11158;53.404;-1.510;2023-05-19T14:10:08;101669.19;;;19.92;44.72
21988;BME280;11158;53.404;-1.510;2023-05-19T14:12:53;101667.75;;;20.66;43.65
21988;BME280;11158;53.404;-1.510;2023-05-19T14:15:37;101655.44;;;21.88;40.26
21988;BME280;11158;53.404;-1.510;2023-05-19T14:18:21;101652.59;;;22.43;39.08
21988;BME280;11158;53.404;-1.510;2023-05-19T14:21:05;101663.63;;;21.07;43.22
21988;BME280;11158;53.404;-1.510;2023-05-19T14:23:50;101662.41;;;20.78;44.14
21988;BME280;11158;53.404;-1.510;2023-05-19T14:26:34;101669.84;;;20.89;43.79
21988;BME280;11158;53.404;-1.510;2023-05-19T14:29:19;101651.22;;;22.22;40.82